Time;durP1;ratioP1;P1;durP2;ratioP2;P2;SDS_P1;SDS_P2;PMS_P1;PMS_P2;Temp;Humidity;BMP_temperature;BMP_pressure;BME280_temperature;BME280_humidity;BME280_pressure;Samples;Min_cycle;Max_cycle;Signal;HPM_P1;HPM_P2
2022/09/02 00:00:05;;;;;;;5.40;4.70;;;;;;;15.71;83.36;155396.53;5071507;28;20442;-81
2022/09/02 00:02:36;;;;;;;5.30;4.80;;;;;;;15.68;83.46;155390.03;5088627;28;20508;-81
2022/09/02 00:05:03;;;;;;;5.80;4.93;;;;;;;15.65;83.68;155380.91;5071219;28;20433;-81
2022/09/02 00:07:30;;;;;;;6.23;5.20;;;;;;;15.58;84.19;155364.03;5072802;28;20434;-81
2022/09/02 00:09:59;;;;;;;5.70;5.20;;;;;;;15.58;84.36;155364.03;5088608;28;20491;-81
2022/09/02 00:12:25;;;;;;;9.83;4.93;;;;;;;15.62;84.09;155373.16;5088620;28;20446;-81
2022/09/02 00:14:52;;;;;;;4.83;4.43;;;;;;;15.51;84.39;155345.88;5071091;28;20465;-81
2022/09/02 00:17:19;;;;;;;5.03;4.47;;;;;;;15.49;84.45;155339.38;5072922;28;20568;-81
2022/09/02 00:19:47;;;;;;;5.03;4.63;;;;;;;15.45;84.49;155328.91;5072829;28;20976;-81
2022/09/02 00:22:13;;;;;;;5.20;4.80;;;;;;;15.47;84.55;155335.44;5072527;28;20444;-81
2022/09/02 00:24:40;;;;;;;5.57;5.07;;;;;;;15.41;84.96;155319.78;5071250;28;20533;-82
2022/09/02 00:27:07;;;;;;;5.47;4.97;;;;;;;15.45;84.68;155328.91;5072803;28;20430;-81
2022/09/02 00:29:34;;;;;;;5.50;4.67;;;;;;;15.37;85.08;155308.09;5071294;28;20456;-81
2022/09/02 00:32:00;;;;;;;4.77;4.37;;;;;;;15.33;85.17;155298.97;5071073;28;20438;-81
2022/09/02 00:34:27;;;;;;;5.03;4.60;;;;;;;15.33;84.96;155297.72;5071981;28;20445;-81
2022/09/02 00:36:56;;;;;;;5.77;5.23;;;;;;;15.28;85.26;155286.00;5088042;28;20548;-81
2022/09/02 00:39:22;;;;;;;4.77;4.37;;;;;;;15.20;85.30;155266.50;5087743;28;20505;-81
2022/09/02 00:41:49;;;;;;;5.20;4.80;;;;;;;15.20;85.29;155265.19;5071151;28;20450;-81
2022/09/02 00:44:17;;;;;;;5.23;4.80;;;;;;;15.19;85.11;155263.94;5072503;28;20817;-81
2022/09/02 00:46:44;;;;;;;5.63;5.13;;;;;;;15.21;85.22;155269.13;5070535;28;20449;-81
2022/09/02 00:49:14;;;;;;;5.33;4.40;;;;;;;15.19;85.05;155262.63;5071935;28;20434;-81
2022/09/02 00:51:44;;;;;;;5.03;4.63;;;;;;;15.09;85.89;155236.66;5087402;28;20564;-81
2022/09/02 00:54:14;;;;;;;5.40;4.90;;;;;;;15.08;85.68;155234.03;5071754;28;20445;-81
2022/09/02 00:56:43;;;;;;;6.60;5.07;;;;;;;15.09;85.76;155237.91;5104247;28;20580;-81
2022/09/02 00:59:12;;;;;;;5.20;4.77;;;;;;;15.02;86.19;155219.75;5104692;28;20513;-81
2022/09/02 01:01:39;;;;;;;5.63;5.13;;;;;;;15.01;85.98;155215.88;5072135;28;20465;-81
2022/09/02 01:04:06;;;;;;;4.70;4.30;;;;;;;15.01;85.86;155215.88;5070405;28;20525;-81
2022/09/02 01:06:33;;;;;;;5.03;4.63;;;;;;;14.96;86.36;155202.81;5072204;28;20816;-81
2022/09/02 01:09:04;;;;;;;5.27;4.77;;;;;;;15.03;85.19;155221.03;5071859;28;20437;-81
2022/09/02 01:11:40;;;;;;;5.00;4.60;;;;;;;15.02;85.42;155218.44;5072162;28;20488;-81
2022/09/02 01:14:07;;;;;;;4.93;4.53;;;;;;;14.99;85.27;155210.63;5104101;28;20516;-81
2022/09/02 01:16:39;;;;;;;5.27;4.77;;;;;;;15.04;84.99;155223.63;5104454;28;20450;-81
2022/09/02 01:19:10;;;;;;;5.00;4.60;;;;;;;14.97;85.05;155205.44;5071068;28;20562;-81
2022/09/02 01:21:37;;;;;;;5.80;5.30;;;;;;;14.93;85.55;155195.06;5087213;28;20579;-81
2022/09/02 01:24:06;;;;;;;5.20;4.80;;;;;;;14.87;85.32;155179.47;5071386;28;20422;-81
2022/09/02 01:26:33;;;;;;;6.87;4.60;;;;;;;14.85;85.62;155174.28;5070354;28;20457;-81
2022/09/02 01:29:00;;;;;;;5.20;4.80;;;;;;;14.83;85.40;155169.06;5070491;28;20430;-81
2022/09/02 01:31:27;;;;;;;5.60;5.10;;;;;;;14.90;85.02;155187.28;5070279;28;20794;-81
2022/09/02 01:33:53;;;;;;;6.63;4.50;;;;;;;14.82;85.23;155167.78;5070086;28;20438;-81
2022/09/02 01:36:21;;;;;;;4.80;4.40;;;;;;;14.83;84.51;155169.06;5071855;28;20434;-81
2022/09/02 01:38:47;;;;;;;5.23;4.83;;;;;;;14.77;84.92;155154.81;5053531;28;20519;-81
2022/09/02 01:41:16;;;;;;;5.00;4.60;;;;;;;14.77;85.05;155153.50;5070270;28;20434;-81
2022/09/02 01:43:42;;;;;;;4.70;4.30;;;;;;;14.74;84.93;155147.00;5103669;28;20470;-81
2022/09/02 01:46:09;;;;;;;4.73;4.30;;;;;;;14.73;84.34;155143.09;5070232;28;20495;-81
2022/09/02 01:48:36;;;;;;;4.60;4.23;;;;;;;14.76;84.97;155152.19;5087011;28;20441;-81
2022/09/02 01:51:04;;;;;;;4.97;4.57;;;;;;;14.78;84.42;155156.06;5086827;28;20810;-81
2022/09/02 01:53:31;;;;;;;5.37;4.47;;;;;;;14.76;84.53;155150.88;5103506;28;20480;-81
2022/09/02 01:55:59;;;;;;;4.90;4.40;;;;;;;14.70;85.01;155136.59;5086863;28;20486;-81
2022/09/02 01:58:29;;;;;;;4.90;4.37;;;;;;;14.66;85.22;155124.91;5054078;28;20574;-81
2022/09/02 02:00:56;;;;;;;4.40;4.00;;;;;;;14.65;85.29;155123.59;5075207;28;20515;-81
2022/09/02 02:03:24;;;;;;;3.80;3.50;;;;;;;14.73;84.56;155143.09;5073522;28;20434;-81
2022/09/02 02:05:51;;;;;;;6.17;5.23;;;;;;;14.71;84.93;155137.91;5107548;28;20441;-81
2022/09/02 02:08:19;;;;;;;5.07;4.57;;;;;;;14.72;84.69;155141.78;5107671;28;20521;-81
2022/09/02 02:10:47;;;;;;;4.77;4.37;;;;;;;14.60;85.47;155110.63;5057177;28;20445;-81
2022/09/02 02:13:15;;;;;;;4.50;4.10;;;;;;;14.53;85.96;155093.72;5073575;28;20445;-81
2022/09/02 02:15:44;;;;;;;4.67;4.27;;;;;;;14.57;85.79;155104.13;5107511;28;20446;-81
2022/09/02 02:18:11;;;;;;;5.30;4.70;;;;;;;14.48;86.10;155080.72;5073548;28;20572;-81
2022/09/02 02:20:38;;;;;;;5.20;4.57;;;;;;;14.47;86.38;155076.84;5074959;28;20881;-81
2022/09/02 02:23:06;;;;;;;4.70;4.30;;;;;;;14.42;86.85;155065.19;5073603;28;20513;-81
2022/09/02 02:25:33;;;;;;;5.10;4.70;;;;;;;14.41;86.99;155061.25;5073166;28;20544;-81
2022/09/02 02:28:00;;;;;;;4.87;4.47;;;;;;;14.40;87.52;155058.69;5074780;28;20433;-81
2022/09/02 02:30:27;;;;;;;6.40;4.87;;;;;;;14.38;87.51;155054.75;5090335;28;20441;-81
2022/09/02 02:32:55;;;;;;;7.13;4.70;;;;;;;14.42;87.60;155063.88;5090084;28;20924;-81
2022/09/02 02:35:23;;;;;;;5.30;4.90;;;;;;;14.40;87.80;155059.94;5106824;28;20454;-81
2022/09/02 02:37:50;;;;;;;5.40;4.33;;;;;;;14.37;88.09;155052.19;5107079;28;20441;-81
2022/09/02 02:40:19;;;;;;;4.83;4.43;;;;;;;14.39;88.08;155057.38;5107192;28;20430;-81
2022/09/02 02:42:47;;;;;;;5.03;4.53;;;;;;;14.33;88.51;155041.78;5056566;28;20473;-81
2022/09/02 02:45:15;;;;;;;4.90;4.50;;;;;;;14.31;88.68;155036.59;5089747;28;20437;-81
2022/09/02 02:47:44;;;;;;;4.97;4.47;;;;;;;14.30;88.66;155033.94;5056376;28;20537;-81
2022/09/02 02:50:15;;;;;;;4.90;4.50;;;;;;;14.30;88.67;155032.63;5105723;28;20437;-81
2022/09/02 02:52:42;;;;;;;4.83;4.33;;;;;;;14.26;89.21;155023.56;5072860;28;20429;-81
2022/09/02 02:55:10;;;;;;;5.47;4.97;;;;;;;14.25;88.97;155020.94;5072656;28;20478;-81
2022/09/02 02:57:38;;;;;;;5.27;4.77;;;;;;;14.27;88.84;155026.13;5072836;28;20991;-81
2022/09/02 03:00:09;;;;;;;4.73;4.33;;;;;;;14.20;89.38;155007.97;5072941;28;20509;-81
2022/09/02 03:02:37;;;;;;;5.33;4.83;;;;;;;14.22;89.06;155013.16;5056078;28;20874;-81
2022/09/02 03:05:06;;;;;;;5.80;4.80;;;;;;;14.26;88.86;155023.56;5089308;28;20484;-81
2022/09/02 03:07:34;;;;;;;5.10;4.60;;;;;;;14.25;89.02;155019.66;5089558;28;20496;-81
2022/09/02 03:10:02;;;;;;;4.33;3.93;;;;;;;14.23;88.78;155015.78;5088603;28;20536;-81
2022/09/02 03:12:32;;;;;;;5.17;4.77;;;;;;;14.15;89.42;154995.00;5089465;28;20848;-81
2022/09/02 03:14:59;;;;;;;4.93;4.53;;;;;;;14.20;89.09;155007.97;5089267;28;20948;-81
2022/09/02 03:17:26;;;;;;;5.93;4.47;;;;;;;14.26;88.78;155022.25;5072514;28;20442;-81
2022/09/02 03:19:57;;;;;;;8.00;5.10;;;;;;;14.12;89.51;154987.19;5072689;28;20477;-81
2022/09/02 03:22:24;;;;;;;5.10;4.60;;;;;;;14.13;88.76;154989.81;5089600;28;20831;-80
2022/09/02 03:24:52;;;;;;;5.20;4.70;;;;;;;14.17;88.87;154998.88;5055403;28;20534;-80
2022/09/02 03:27:19;;;;;;;4.67;4.27;;;;;;;14.08;88.96;154975.53;5072651;28;20432;-80
2022/09/02 03:29:46;;;;;;;4.50;4.10;;;;;;;14.04;89.27;154967.72;5072284;28;20426;-80
2022/09/02 03:32:13;;;;;;;4.93;4.40;;;;;;;14.12;88.45;154987.19;5089355;28;20500;-81
2022/09/02 03:34:40;;;;;;;4.60;4.20;;;;;;;14.03;88.88;154965.13;5072051;28;20426;-81
2022/09/02 03:37:08;;;;;;;4.47;4.07;;;;;;;14.00;88.66;154957.31;5072257;28;20770;-80
2022/09/02 03:39:36;;;;;;;4.63;4.23;;;;;;;14.09;88.31;154979.41;5072132;28;20793;-81
2022/09/02 03:42:04;;;;;;;5.50;4.27;;;;;;;14.03;88.57;154963.84;5089104;28;20457;-81
2022/09/02 03:44:33;;;;;;;4.90;4.10;;;;;;;13.98;88.51;154952.13;5055122;28;20430;-80
2022/09/02 03:47:00;;;;;;;5.00;4.60;;;;;;;14.03;88.31;154963.84;5072151;28;20519;-80
2022/09/02 03:49:27;;;;;;;4.60;4.20;;;;;;;13.97;88.63;154948.25;5105718;28;20834;-80
2022/09/02 03:51:54;;;;;;;4.43;4.03;;;;;;;14.02;88.63;154961.25;5055168;28;20893;-80
2022/09/02 03:54:21;;;;;;;4.50;4.20;;;;;;;13.98;88.55;154950.81;5088375;28;20438;-80
2022/09/02 03:56:48;;;;;;;4.30;3.93;;;;;;;13.95;88.88;154944.34;5055059;28;20480;-80
2022/09/02 03:59:17;;;;;;;4.77;4.37;;;;;;;13.90;89.46;154930.06;5072809;28;20542;-80
2022/09/02 04:01:44;;;;;;;4.33;3.93;;;;;;;13.88;89.42;154924.88;5071995;28;20425;-80
2022/09/02 04:04:10;;;;;;;4.83;4.13;;;;;;;13.84;90.05;154914.50;5071273;28;20442;-81
2022/09/02 04:06:39;;;;;;;5.43;4.33;;;;;;;13.83;90.20;154913.22;5088553;28;20496;-80
2022/09/02 04:09:06;;;;;;;4.90;4.50;;;;;;;13.80;90.43;154904.09;5088369;28;20702;-80
2022/09/02 04:11:34;;;;;;;5.20;4.70;;;;;;;13.73;90.87;154885.94;5088502;28;20438;-80
2022/09/02 04:14:00;;;;;;;5.30;4.90;;;;;;;13.72;91.14;154883.34;5088123;28;21138;-80
2022/09/02 04:16:30;;;;;;;5.00;4.43;;;;;;;13.75;91.40;154891.13;5088154;28;20464;-80
2022/09/02 04:19:02;;;;;;;4.77;4.37;;;;;;;13.73;91.35;154885.94;5054653;28;20596;-81
2022/09/02 04:21:32;;;;;;;5.40;4.90;;;;;;;13.68;91.71;154872.97;5105076;28;20442;-80
2022/09/02 04:23:59;;;;;;;5.00;4.60;;;;;;;13.74;91.52;154888.56;5072315;28;20465;-81
2022/09/02 04:26:27;;;;;;;5.10;4.70;;;;;;;13.69;91.80;154875.53;5071243;28;20470;-81
2022/09/02 04:28:55;;;;;;;5.17;4.77;;;;;;;13.69;91.87;154875.53;5088423;28;20860;-80
2022/09/02 04:31:24;;;;;;;5.33;4.80;;;;;;;13.70;91.96;154878.16;5087888;28;20478;-81
2022/09/02 04:33:55;;;;;;;6.07;5.50;;;;;;;13.65;92.36;154865.19;5053957;28;20475;-80
2022/09/02 04:36:23;;;;;;;6.00;5.50;;;;;;;13.64;92.01;154863.88;5087934;28;20503;-81
2022/09/02 04:38:51;;;;;;;5.30;4.80;;;;;;;13.58;92.33;154847.03;5054154;28;20474;-80
2022/09/02 04:41:23;;;;;;;5.63;5.13;;;;;;;13.63;91.95;154860.00;5087862;28;20434;-80
2022/09/02 04:43:54;;;;;;;7.90;4.90;;;;;;;13.61;92.40;154854.81;5053890;28;20816;-80
2022/09/02 04:46:23;;;;;;;6.20;5.70;;;;;;;13.65;91.98;154865.19;5070873;28;20552;-81
2022/09/02 04:48:50;;;;;;;5.87;5.37;;;;;;;13.73;91.81;154885.94;5087815;28;20980;-80
2022/09/02 04:51:21;;;;;;;6.03;5.43;;;;;;;13.66;91.94;154869.06;5070994;28;20453;-80
2022/09/02 04:53:51;;;;;;;6.30;5.80;;;;;;;13.69;91.94;154875.53;5072178;28;20762;-80
2022/09/02 04:56:20;;;;;;;5.90;5.40;;;;;;;13.65;92.01;154865.19;5087606;28;20916;-80
2022/09/02 04:58:49;;;;;;;5.90;5.40;;;;;;;13.65;92.76;154865.19;5087505;28;20964;-81
2022/09/02 05:01:20;;;;;;;5.83;5.37;;;;;;;13.61;92.33;154854.81;5104880;28;20450;-80
2022/09/02 05:03:48;;;;;;;5.63;5.13;;;;;;;13.65;92.46;154866.50;5054151;28;20445;-80
2022/09/02 05:06:18;;;;;;;7.13;6.43;;;;;;;13.70;91.98;154878.16;5087127;28;20464;-80
2022/09/02 05:08:47;;;;;;;5.80;5.30;;;;;;;13.69;91.91;154876.84;5072121;28;20504;-80
2022/09/02 05:11:17;;;;;;;5.67;5.17;;;;;;;13.73;91.98;154885.94;5054012;28;20921;-80
2022/09/02 05:13:44;;;;;;;6.00;4.43;;;;;;;13.72;91.76;154883.34;5070839;28;20913;-80
2022/09/02 05:16:15;;;;;;;8.03;6.27;;;;;;;13.74;91.97;154888.56;5070400;28;20913;-80
2022/09/02 05:18:41;;;;;;;6.43;5.83;;;;;;;13.74;91.98;154888.56;5087579;28;20422;-80
2022/09/02 05:21:08;;;;;;;5.40;5.00;;;;;;;13.69;92.48;154876.84;5072008;28;20430;-80
2022/09/02 05:23:36;;;;;;;5.90;4.87;;;;;;;13.66;92.52;154869.06;5103387;28;20448;-80
2022/09/02 05:26:05;;;;;;;7.30;6.43;;;;;;;13.67;92.55;154870.34;5071788;28;20473;-80
2022/09/02 05:28:32;;;;;;;6.07;5.50;;;;;;;13.68;92.47;154872.97;5070347;28;20488;-80
2022/09/02 05:31:04;;;;;;;5.80;5.30;;;;;;;13.70;92.99;154878.16;5071868;28;20870;-81
2022/09/02 05:33:32;;;;;;;5.47;4.97;;;;;;;13.73;92.45;154885.94;5088205;28;20457;-80
2022/09/02 05:35:59;;;;;;;7.63;5.43;;;;;;;13.85;92.54;154917.06;5108352;28;20445;-80
2022/09/02 05:38:26;;;;;;;6.10;5.50;;;;;;;13.93;91.86;154937.84;5091778;28;20524;-81
2022/09/02 05:40:52;;;;;;;5.57;5.13;;;;;;;14.00;91.36;154957.31;5107638;28;20547;-81
2022/09/02 05:43:21;;;;;;;5.50;5.00;;;;;;;14.10;91.50;154982.03;5075624;28;20905;-80
2022/09/02 05:45:48;;;;;;;6.10;5.60;;;;;;;14.26;91.41;155023.56;5074271;28;20511;-81
2022/09/02 05:50:56;;;;;;;5.70;5.20;;;;;;;14.79;88.44;155158.69;5039339;28;20490;-81
2022/09/02 05:53:25;;;;;;;5.90;5.40;;;;;;;15.07;87.04;155232.72;5037366;28;20449;-82
2022/09/02 05:55:52;;;;;;;5.53;5.03;;;;;;;15.33;84.82;155298.97;5036955;28;20542;-81
2022/09/02 05:58:21;;;;;;;5.40;4.90;;;;;;;15.53;84.41;155349.75;5051552;28;20473;-81
2022/09/02 06:00:48;;;;;;;5.50;4.93;;;;;;;15.80;83.77;155421.25;5074264;28;20486;-81
2022/09/02 06:03:17;;;;;;;5.53;5.03;;;;;;;16.02;82.58;155477.13;5074124;28;20434;-81
2022/09/02 06:05:54;;;;;;;4.80;4.40;;;;;;;16.23;82.14;155530.47;5073530;28;20442;-81
2022/09/02 06:08:21;;;;;;;4.80;4.30;;;;;;;16.35;79.62;155561.66;5073908;28;20806;-81
2022/09/02 06:10:48;;;;;;;4.87;4.47;;;;;;;16.53;79.44;155608.53;5073789;28;20905;-81
2022/09/02 06:13:21;;;;;;;5.70;5.07;;;;;;;16.59;78.25;155624.16;5075154;28;20418;-81
2022/09/02 06:15:49;;;;;;;5.47;4.90;;;;;;;16.84;78.36;155687.88;5090196;28;20812;-81
2022/09/02 06:18:18;;;;;;;5.83;5.33;;;;;;;17.04;75.85;155741.25;5074075;28;20431;-81
2022/09/02 06:20:48;;;;;;;5.07;4.67;;;;;;;16.92;76.05;155710.00;5073694;28;20477;-81
2022/09/02 06:23:16;;;;;;;5.40;4.90;;;;;;;17.23;76.63;155788.09;5090569;28;20534;-81
2022/09/02 06:25:46;;;;;;;5.80;5.30;;;;;;;17.28;75.28;155802.41;5089984;28;20695;-81
2022/09/02 06:28:14;;;;;;;4.50;4.10;;;;;;;17.45;74.95;155846.63;5073512;28;20905;-81
2022/09/02 06:30:47;;;;;;;5.40;4.40;;;;;;;17.54;74.90;155868.84;5090266;28;20557;-81
2022/09/02 06:33:16;;;;;;;6.30;4.70;;;;;;;17.92;75.10;155966.50;5036831;28;20446;-81
2022/09/02 06:35:45;;;;;;;4.93;4.53;;;;;;;18.15;72.80;156027.69;5069733;28;20952;-81
2022/09/02 06:38:15;;;;;;;5.37;4.87;;;;;;;18.32;71.80;156069.38;5053501;28;20423;-81
2022/09/02 06:40:47;;;;;;;5.40;4.90;;;;;;;18.01;72.02;155991.22;5086914;28;20695;-81
2022/09/02 06:43:14;;;;;;;6.37;5.27;;;;;;;18.25;71.93;156053.72;5053222;28;20490;-81
2022/09/02 06:45:55;;;;;;;6.17;5.10;;;;;;;18.44;70.47;156100.59;5051433;28;20805;-81
2022/09/02 06:48:22;;;;;;;5.30;4.90;;;;;;;18.43;70.31;156099.28;5055630;28;20447;-81
2022/09/02 06:50:50;;;;;;;5.37;4.90;;;;;;;18.56;70.62;156131.94;5071071;28;20457;-81
2022/09/02 06:53:18;;;;;;;8.00;4.47;;;;;;;18.72;69.35;156173.59;5073114;28;20528;-81
2022/09/02 06:55:46;;;;;;;5.30;4.77;;;;;;;19.19;69.74;156296.13;5089610;28;20913;-81
2022/09/02 06:58:13;;;;;;;5.13;4.73;;;;;;;19.16;67.59;156288.28;5074234;28;20410;-81
2022/09/02 07:00:41;;;;;;;5.20;4.80;;;;;;;19.34;67.15;156335.19;5089637;28;20480;-81
2022/09/02 07:06:02;;;;;;;5.40;4.63;;;;;;;19.72;66.58;156431.72;5071806;28;20924;-81
2022/09/02 07:08:30;;;;;;;5.00;4.60;;;;;;;19.89;66.43;156476.03;5106800;28;20429;-81
2022/09/02 07:10:57;;;;;;;4.77;4.37;;;;;;;20.00;65.96;156506.03;5072909;28;20446;-81
2022/09/02 07:13:25;;;;;;;5.43;4.80;;;;;;;19.71;65.29;156430.41;5089457;28;20431;-81
2022/09/02 07:15:52;;;;;;;4.73;4.37;;;;;;;19.86;65.81;156468.19;5072227;28;20549;-81
2022/09/02 07:18:20;;;;;;;9.10;5.33;;;;;;;20.10;64.96;156530.78;5072678;28;20438;-81
2022/09/02 07:20:48;;;;;;;5.53;5.03;;;;;;;19.89;64.56;156476.03;5089473;28;20721;-81
2022/09/02 07:23:15;;;;;;;6.10;4.53;;;;;;;20.20;64.90;156556.84;5089185;28;20434;-81
2022/09/02 07:25:43;;;;;;;5.30;4.80;;;;;;;20.41;64.01;156610.44;5055456;28;20434;-81
2022/09/02 07:28:11;;;;;;;6.83;4.57;;;;;;;20.51;63.78;156637.81;5055746;28;20450;-81
2022/09/02 07:30:41;;;;;;;5.03;4.67;;;;;;;20.37;63.41;156599.97;5072311;28;20790;-81
2022/09/02 07:33:13;;;;;;;4.80;4.40;;;;;;;20.49;63.71;156632.56;5106132;28;20433;-81
2022/09/02 07:35:43;;;;;;;4.97;4.00;;;;;;;20.63;63.84;156669.09;5105411;28;20468;-81
2022/09/02 07:38:11;;;;;;;4.53;4.23;;;;;;;20.81;63.69;156713.47;5105909;28;20492;-81
2022/09/02 07:40:40;;;;;;;4.90;4.50;;;;;;;20.71;61.78;156687.34;5105747;28;20473;-81
2022/09/02 07:43:10;;;;;;;4.27;3.97;;;;;;;20.85;62.09;156725.22;5072048;28;20777;-81
2022/09/02 07:45:38;;;;;;;4.73;4.23;;;;;;;21.04;60.61;156774.81;5071686;28;20810;-81
2022/09/02 07:48:06;;;;;;;4.10;3.80;;;;;;;21.36;60.34;156855.75;5073115;28;21040;-81
2022/09/02 07:50:36;;;;;;;4.30;3.90;;;;;;;21.13;59.52;156797.00;5072261;28;20442;-81
2022/09/02 07:53:06;;;;;;;4.23;3.90;;;;;;;20.31;61.70;156584.31;5072480;28;21011;-80
2022/09/02 07:55:36;;;;;;;3.93;3.63;;;;;;;20.01;63.39;156507.34;5071374;28;20450;-80
2022/09/02 07:58:04;;;;;;;4.50;4.10;;;;;;;20.43;61.89;156616.94;5088524;28;20472;-80
2022/09/02 08:00:32;;;;;;;4.27;3.87;;;;;;;20.56;61.83;156650.84;5105398;28;20546;-81
2022/09/02 08:03:05;;;;;;;4.50;3.40;;;;;;;20.59;60.71;156658.69;5071839;28;20435;-81
2022/09/02 08:05:38;;;;;;;4.03;3.73;;;;;;;20.49;60.72;156631.28;5071376;28;20461;-81
2022/09/02 08:08:07;;;;;;;4.03;3.73;;;;;;;20.48;61.14;156629.97;5073188;28;20437;-80
2022/09/02 08:10:34;;;;;;;3.67;3.37;;;;;;;20.60;61.04;156661.28;5088763;28;20442;-81
2022/09/02 08:13:01;;;;;;;4.27;3.97;;;;;;;20.81;59.96;156713.47;5088324;28;20559;-80
2022/09/02 08:15:29;;;;;;;3.97;3.67;;;;;;;20.27;59.96;156573.88;5071040;28;20823;-80
2022/09/02 08:17:56;;;;;;;5.03;3.70;;;;;;;20.57;60.88;156653.44;5071445;28;21011;-80
2022/09/02 08:20:23;;;;;;;3.97;3.67;;;;;;;20.39;60.25;156606.47;5088093;28;20481;-80
2022/09/02 08:22:50;;;;;;;3.60;3.30;;;;;;;20.41;60.10;156611.69;5105425;28;20491;-80
2022/09/02 08:25:18;;;;;;;3.80;3.50;;;;;;;20.43;60.36;156615.63;5087718;28;20456;-81
2022/09/02 08:27:45;;;;;;;5.30;4.07;;;;;;;20.07;60.70;156522.94;5072555;28;20430;-80
2022/09/02 08:30:12;;;;;;;3.83;3.53;;;;;;;20.42;60.71;156614.31;5070923;28;20442;-80
2022/09/02 08:32:40;;;;;;;5.23;3.33;;;;;;;20.46;60.04;156624.78;5072427;28;20426;-80
2022/09/02 08:35:08;;;;;;;3.80;3.50;;;;;;;20.68;59.90;156679.56;5087714;28;20487;-80
2022/09/02 08:37:36;;;;;;;3.90;3.50;;;;;;;21.08;58.87;156783.97;5072622;28;20789;-80
2022/09/02 08:40:05;;;;;;;4.30;3.60;;;;;;;20.87;58.46;156730.41;5071298;28;20464;-80
2022/09/02 08:42:36;;;;;;;3.57;3.27;;;;;;;20.91;57.82;156740.88;5072327;28;20917;-80
2022/09/02 08:45:08;;;;;;;4.70;3.57;;;;;;;20.87;57.92;156729.09;5071821;28;20439;-80
2022/09/02 08:47:35;;;;;;;6.40;3.53;;;;;;;21.04;57.59;156773.50;5070598;28;20488;-81
2022/09/02 08:50:06;;;;;;;3.13;2.80;;;;;;;21.37;56.90;156859.66;5071927;28;20430;-80
2022/09/02 08:52:38;;;;;;;4.70;3.47;;;;;;;21.16;56.79;156804.84;5104677;28;20423;-80
2022/09/02 08:55:06;;;;;;;2.67;2.47;;;;;;;21.34;57.92;156850.56;5070445;28;20457;-80
2022/09/02 08:57:35;;;;;;;3.60;3.30;;;;;;;21.29;56.72;156837.50;5070990;28;20474;-81
2022/09/02 09:00:03;;;;;;;3.13;2.90;;;;;;;21.05;57.39;156776.06;5087608;28;20980;-81
2022/09/02 09:02:39;;;;;;;3.10;2.90;;;;;;;21.06;57.86;156778.69;5104785;28;20442;-81
2022/09/02 09:05:19;;;;;;;4.13;3.73;;;;;;;21.14;55.88;156800.94;5071426;28;20469;-81
2022/09/02 09:07:56;;;;;;;4.00;3.43;;;;;;;21.13;56.37;156797.00;5069956;28;20788;-81
2022/09/02 09:10:25;;;;;;;5.53;3.20;;;;;;;21.09;56.84;156786.59;5070944;28;20441;-81
2022/09/02 09:13:22;;;;;;;3.83;3.50;;;;;;;20.90;58.34;156738.25;5070680;28;20434;-80
2022/09/02 09:15:53;;;;;;;3.20;3.00;;;;;;;20.99;56.61;156760.44;5068481;28;20853;-80
2022/09/02 09:18:25;;;;;;;3.40;3.17;;;;;;;20.93;57.17;156744.78;5087429;28;20434;-80
2022/09/02 09:20:51;;;;;;;3.63;3.30;;;;;;;20.86;58.26;156726.53;5071652;28;20475;-80
2022/09/02 09:23:27;;;;;;;3.77;3.47;;;;;;;20.61;57.80;156662.59;5070441;28;20444;-80
2022/09/02 09:25:57;;;;;;;3.20;2.90;;;;;;;20.89;57.92;156735.63;5087065;28;20948;-80
2022/09/02 09:28:24;;;;;;;3.43;3.03;;;;;;;20.90;57.03;156738.25;5071922;28;20509;-80
2022/09/02 09:30:52;;;;;;;2.97;2.77;;;;;;;20.90;56.19;156736.94;5071755;28;20442;-80
2022/09/02 09:33:22;;;;;;;3.60;3.30;;;;;;;20.53;56.05;156643.03;5087537;28;20442;-80
2022/09/02 09:35:50;;;;;;;3.43;3.13;;;;;;;20.83;56.46;156718.69;5071469;28;20442;-81
2022/09/02 09:38:28;;;;;;;3.20;3.00;;;;;;;20.67;56.87;156676.94;5070503;28;20793;-80
2022/09/02 09:41:10;;;;;;;3.30;3.10;;;;;;;20.46;56.80;156624.78;5070211;28;20512;-80
2022/09/02 09:43:37;;;;;;;3.03;2.80;;;;;;;20.49;57.03;156632.56;5070440;28;20422;-80
2022/09/02 09:46:22;;;;;;;3.53;3.23;;;;;;;20.68;57.51;156679.56;5071353;28;20913;-80
2022/09/02 09:48:50;;;;;;;2.57;2.37;;;;;;;20.75;56.62;156697.81;5071733;28;20457;-80
2022/09/02 09:51:17;;;;;;;2.97;2.77;;;;;;;20.82;55.12;156716.06;5087098;28;21043;-80
2022/09/02 09:53:44;;;;;;;2.80;2.60;;;;;;;20.82;55.47;156716.06;5087230;28;20536;-80
2022/09/02 09:56:25;;;;;;;4.73;2.80;;;;;;;20.71;55.13;156687.34;5070793;28;20466;-80
2022/09/02 09:58:52;;;;;;;3.27;2.97;;;;;;;20.76;55.02;156700.44;5070174;28;20437;-80
2022/09/02 10:01:23;;;;;;;2.87;2.60;;;;;;;20.70;54.79;156684.78;5104026;28;20482;-80
2022/09/02 10:03:52;;;;;;;2.93;2.40;;;;;;;20.60;54.72;156659.94;5071436;28;20479;-80
2022/09/02 10:06:21;;;;;;;3.07;2.70;;;;;;;20.70;55.10;156684.78;5071193;28;20437;-80
2022/09/02 10:08:52;;;;;;;2.63;2.43;;;;;;;20.73;54.62;156692.63;5071313;28;20832;-80
2022/09/02 10:11:25;;;;;;;3.90;2.47;;;;;;;20.95;54.82;156750.00;5103753;28;20545;-82
2022/09/02 10:13:55;;;;;;;2.77;2.50;;;;;;;20.65;53.95;156674.31;5071116;28;20469;-80
2022/09/02 10:16:32;;;;;;;4.17;3.00;;;;;;;20.75;53.19;156697.81;5103468;28;20535;-80
2022/09/02 10:19:03;;;;;;;3.13;2.60;;;;;;;20.68;52.84;156679.56;5071266;28;20441;-80
2022/09/02 10:21:45;;;;;;;2.83;2.63;;;;;;;20.74;53.61;156695.19;5073733;28;20834;-80
2022/09/02 10:24:23;;;;;;;3.10;2.80;;;;;;;20.62;52.82;156665.22;5074964;28;20420;-80
2022/09/02 10:26:53;;;;;;;2.80;2.60;;;;;;;20.61;51.99;156662.59;5074870;28;20434;-80
2022/09/02 10:29:47;;;;;;;2.33;2.13;;;;;;;20.87;51.89;156729.09;5073396;28;20483;-80
2022/09/02 10:32:39;;;;;;;2.67;2.47;;;;;;;20.89;52.40;156735.63;5107507;28;20907;-80
2022/09/02 10:35:11;;;;;;;2.70;2.40;;;;;;;21.00;51.64;156764.34;5073628;28;20538;-80
2022/09/02 10:37:49;;;;;;;4.90;3.90;;;;;;;20.88;50.63;156733.06;5107073;28;20549;-80
2022/09/02 10:40:18;;;;;;;2.60;2.40;;;;;;;20.71;51.07;156688.66;5074560;28;20486;-80
2022/09/02 10:42:53;;;;;;;2.60;2.40;;;;;;;20.86;51.37;156726.53;5073255;28;20558;-80
2022/09/02 10:45:24;;;;;;;2.37;2.17;;;;;;;20.75;51.55;156697.81;5072891;28;20499;-80
2022/09/02 10:48:01;;;;;;;2.10;2.00;;;;;;;20.91;51.03;156739.56;5096184;28;20477;-80
2022/09/02 10:50:37;;;;;;;4.23;2.20;;;;;;;20.89;50.44;156735.63;5053055;28;20486;-80
2022/09/02 10:53:13;;;;;;;2.63;2.43;;;;;;;20.79;51.06;156709.53;5053243;28;20434;-80
2022/09/02 10:55:46;;;;;;;7.60;2.23;;;;;;;20.84;49.95;156722.59;5069323;28;20440;-80
2022/09/02 10:58:17;;;;;;;2.13;1.87;;;;;;;20.88;50.42;156733.06;5054226;28;20751;-80
2022/09/02 11:00:50;;;;;;;2.63;2.23;;;;;;;21.00;49.45;156763.03;5069757;28;20579;-80
2022/09/02 11:03:22;;;;;;;2.40;2.20;;;;;;;21.04;49.65;156773.50;5059404;28;20457;-80
2022/09/02 11:05:51;;;;;;;2.90;2.60;;;;;;;21.00;50.16;156764.34;5073970;28;20828;-80
2022/09/02 11:08:24;;;;;;;3.53;2.70;;;;;;;20.89;50.00;156735.63;5106486;28;20441;-80
2022/09/02 11:10:59;;;;;;;2.50;2.30;;;;;;;20.60;50.15;156659.94;5072944;28;20830;-80
2022/09/02 11:13:30;;;;;;;2.80;2.33;;;;;;;20.83;51.76;156718.69;5106633;28;20430;-80
2022/09/02 11:16:01;;;;;;;2.80;2.60;;;;;;;21.00;50.22;156763.03;5072779;28;20442;-80
2022/09/02 11:18:34;;;;;;;2.40;2.20;;;;;;;21.21;50.58;156817.91;5073867;28;20422;-80
2022/09/02 11:21:05;;;;;;;2.77;2.57;;;;;;;21.02;50.44;156768.28;5072634;28;20484;-80
2022/09/02 11:23:38;;;;;;;2.87;2.67;;;;;;;21.01;50.27;156765.66;5074041;28;20417;-80
2022/09/02 11:26:10;;;;;;;2.40;2.20;;;;;;;20.92;49.80;156743.47;5072310;28;20935;-80
2022/09/02 11:28:41;;;;;;;2.47;2.27;;;;;;;21.07;51.27;156781.38;5072375;28;20426;-80
2022/09/02 11:31:14;;;;;;;2.60;2.40;;;;;;;21.14;50.31;156800.94;5073193;28;20437;-80
2022/09/02 11:33:49;;;;;;;2.53;2.33;;;;;;;21.16;49.36;156806.16;5074072;28;20509;-80
2022/09/02 11:36:17;;;;;;;2.57;2.37;;;;;;;21.23;49.06;156823.16;5073625;28;20528;-80
2022/09/02 11:38:47;;;;;;;2.40;2.20;;;;;;;21.28;50.82;156836.19;5073221;28;20564;-80